Time;durP1;ratioP1;P1;durP2;ratioP2;P2;SDS_P1;SDS_P2;PMS_P1;PMS_P2;Temp;Humidity;BMP_temperature;BMP_pressure;BME280_temperature;BME280_humidity;BME280_pressure;Samples;Min_cycle;Max_cycle;Signal;HPM_P1;HPM_P2
2023/06/07 00:00:33;;;;;;;7.43;5.70;;;17.10;99.90;;;;;;5075248;28;20203;-90
2023/06/07 00:03:09;;;;;;;8.32;5.90;;;17.10;99.90;;;;;;5087579;28;20204;-89
2023/06/07 00:05:40;;;;;;;7.30;5.63;;;17.10;99.90;;;;;;5081110;28;20203;-91
2023/06/07 00:08:13;;;;;;;7.15;5.00;;;17.30;99.90;;;;;;5087246;28;20638;-90
2023/06/07 00:10:49;;;;;;;6.90;5.13;;;17.40;99.90;;;;;;5086463;28;20234;-90
2023/06/07 00:13:22;;;;;;;8.82;5.10;;;17.50;99.90;;;;;;5075547;28;20223;-90
2023/06/07 00:15:53;;;;;;;6.25;4.45;;;17.60;99.90;;;;;;5073457;28;20682;-91
2023/06/07 00:18:24;;;;;;;6.88;4.38;;;17.80;99.90;;;;;;5074706;28;20204;-91
2023/06/07 00:20:57;;;;;;;6.10;3.53;;;17.80;99.90;;;;;;5074000;28;20227;-90
2023/06/07 00:23:30;;;;;;;5.47;3.30;;;17.90;99.90;;;;;;5074058;28;20220;-89
2023/06/07 00:26:05;;;;;;;3.65;3.10;;;18.00;99.90;;;;;;5074492;28;20233;-90
2023/06/07 00:28:39;;;;;;;5.18;3.20;;;18.10;99.90;;;;;;5076465;28;20214;-91
2023/06/07 00:31:10;;;;;;;4.80;3.00;;;18.20;99.90;;;;;;5075245;28;20203;-90
2023/06/07 00:33:41;;;;;;;7.28;2.10;;;18.20;99.90;;;;;;5075128;28;20204;-91
2023/06/07 00:36:13;;;;;;;4.80;2.03;;;18.30;99.90;;;;;;5079693;28;20211;-89
2023/06/07 00:38:44;;;;;;;3.53;1.75;;;18.50;99.90;;;;;;5083479;28;20635;-89
2023/06/07 00:41:18;;;;;;;4.60;1.65;;;18.60;99.90;;;;;;5083379;28;20235;-89
2023/06/07 00:43:51;;;;;;;2.88;0.93;;;18.70;99.90;;;;;;5058826;28;20207;-92
2023/06/07 00:46:25;;;;;;;6.38;2.10;;;18.90;99.90;;;;;;5074320;28;20196;-90
2023/06/07 00:48:56;;;;;;;2.78;1.10;;;19.10;99.90;;;;;;5054314;28;20211;-91
2023/06/07 00:51:30;;;;;;;3.72;0.80;;;19.10;99.90;;;;;;5067056;28;20222;-90
2023/06/07 00:54:07;;;;;;;5.22;0.90;;;19.30;99.90;;;;;;5093393;28;20257;-90
2023/06/07 00:56:43;;;;;;;2.22;0.70;;;19.40;99.90;;;;;;5075200;28;20204;-91
2023/06/07 00:59:16;;;;;;;1.30;0.50;;;19.60;99.90;;;;;;5056478;28;20655;-90
2023/06/07 01:01:51;;;;;;;2.03;0.70;;;19.70;99.90;;;;;;5053304;28;20258;-92
2023/06/07 01:04:25;;;;;;;2.42;0.60;;;19.80;99.90;;;;;;5062877;28;20677;-91
2023/06/07 01:07:01;;;;;;;2.05;0.73;;;19.90;99.90;;;;;;5074205;28;20567;-90
2023/06/07 01:09:35;;;;;;;1.58;0.50;;;19.80;99.90;;;;;;5072870;28;20192;-91
2023/06/07 01:12:17;;;;;;;1.40;0.80;;;20.00;99.90;;;;;;5074142;28;20693;-90
2023/06/07 01:14:51;;;;;;;1.25;0.45;;;20.10;99.90;;;;;;5074089;28;20224;-90
2023/06/07 01:17:24;;;;;;;1.75;0.70;;;20.30;99.90;;;;;;5073514;28;20564;-90
2023/06/07 01:19:58;;;;;;;1.23;0.52;;;20.30;99.90;;;;;;5072838;28;20542;-90
2023/06/07 01:22:32;;;;;;;2.00;0.60;;;20.40;99.90;;;;;;5072764;28;20690;-90
2023/06/07 01:25:07;;;;;;;2.10;0.40;;;20.20;99.90;;;;;;5073082;28;20678;-90
2023/06/07 01:27:40;;;;;;;2.40;0.60;;;20.10;99.90;;;;;;5054215;28;20199;-91
2023/06/07 01:30:15;;;;;;;1.88;0.50;;;20.10;99.90;;;;;;5052902;28;20212;-91
2023/06/07 01:32:49;;;;;;;2.20;0.68;;;20.20;99.90;;;;;;5053273;28;20239;-89
2023/06/07 01:35:22;;;;;;;2.30;0.60;;;20.30;99.90;;;;;;5053630;28;20199;-90
2023/06/07 01:37:54;;;;;;;1.30;0.45;;;20.40;99.90;;;;;;5057840;28;20204;-91
2023/06/07 01:40:30;;;;;;;3.35;0.80;;;20.40;99.90;;;;;;5073217;28;20203;-90
2023/06/07 01:43:03;;;;;;;2.55;0.65;;;20.50;99.90;;;;;;5073736;28;20331;-91
2023/06/07 01:45:34;;;;;;;1.60;0.60;;;20.50;99.90;;;;;;5073299;28;20195;-90
2023/06/07 01:48:06;;;;;;;1.20;0.73;;;20.60;99.90;;;;;;5073218;28;20200;-91
2023/06/07 01:50:37;;;;;;;2.83;0.77;;;20.60;99.90;;;;;;5073006;28;20210;-91
2023/06/07 01:53:08;;;;;;;3.10;0.60;;;20.60;99.90;;;;;;5073056;28;20207;-91
2023/06/07 01:55:42;;;;;;;2.10;0.70;;;20.50;99.90;;;;;;5075737;28;20288;-90
2023/06/07 01:58:23;;;;;;;2.17;0.80;;;20.50;99.90;;;;;;5079078;28;20677;-90
2023/06/07 02:01:05;;;;;;;3.60;0.77;;;20.50;99.90;;;;;;5075465;28;20204;-91
2023/06/07 02:03:42;;;;;;;1.67;0.75;;;20.50;99.90;;;;;;5073690;28;20204;-89
2023/06/07 02:06:17;;;;;;;2.45;0.57;;;20.30;99.90;;;;;;5074546;28;20633;-91
2023/06/07 02:08:51;;;;;;;1.88;0.50;;;20.30;99.90;;;;;;5078825;28;20220;-91
2023/06/07 02:11:27;;;;;;;2.22;0.60;;;20.40;99.90;;;;;;5081689;28;20291;-90
2023/06/07 02:13:58;;;;;;;3.63;0.77;;;20.60;99.90;;;;;;5066503;28;20766;-91
2023/06/07 02:16:40;;;;;;;1.35;0.55;;;20.70;99.90;;;;;;5053034;28;20200;-90
2023/06/07 02:19:16;;;;;;;2.42;0.80;;;20.80;99.90;;;;;;5053228;28;20212;-91
2023/06/07 02:21:48;;;;;;;2.35;0.85;;;20.70;99.90;;;;;;5052648;28;20700;-91
2023/06/07 02:24:20;;;;;;;3.75;0.70;;;20.70;99.90;;;;;;5052567;28;20207;-92
2023/06/07 02:26:55;;;;;;;2.92;0.63;;;20.80;99.90;;;;;;5052777;28;20203;-91
2023/06/07 02:29:26;;;;;;;1.13;0.43;;;20.60;99.90;;;;;;5061541;28;20199;-91
2023/06/07 02:32:00;;;;;;;1.85;0.70;;;20.60;99.90;;;;;;5072672;28;20242;-90
2023/06/07 02:34:33;;;;;;;3.83;0.90;;;20.60;99.90;;;;;;5072646;28;20260;-91
2023/06/07 02:37:05;;;;;;;1.95;0.80;;;20.80;99.90;;;;;;5073850;28;20207;-91
2023/06/07 02:39:36;;;;;;;2.88;0.73;;;20.80;99.90;;;;;;5073880;28;20203;-91
2023/06/07 02:42:11;;;;;;;2.83;0.77;;;20.90;99.90;;;;;;5071997;28;20289;-92
2023/06/07 02:44:42;;;;;;;5.70;0.73;;;20.90;99.90;;;;;;5073950;28;20654;-91
2023/06/07 02:47:15;;;;;;;1.92;0.80;;;21.00;99.90;;;;;;5067040;28;20200;-90
2023/06/07 02:49:50;;;;;;;3.13;1.10;;;21.00;99.90;;;;;;5067976;28;20249;-91
2023/06/07 02:52:21;;;;;;;1.52;0.80;;;21.00;99.90;;;;;;5068066;28;20195;-92
2023/06/07 02:54:52;;;;;;;1.65;0.80;;;21.00;99.90;;;;;;5072537;28;20233;-92
2023/06/07 02:57:28;;;;;;;1.92;0.80;;;21.00;99.90;;;;;;5070614;28;20203;-91
2023/06/07 03:00:01;;;;;;;2.45;0.70;;;21.10;99.90;;;;;;5052303;28;20196;-90
2023/06/07 03:02:34;;;;;;;3.15;0.60;;;21.20;99.90;;;;;;5054595;28;20256;-91
2023/06/07 03:05:05;;;;;;;3.10;0.77;;;21.30;99.90;;;;;;5072613;28;20254;-90
2023/06/07 03:07:37;;;;;;;2.30;0.82;;;21.30;99.90;;;;;;5080462;28;20223;-91
2023/06/07 03:10:11;;;;;;;3.20;0.80;;;21.30;99.90;;;;;;5060487;28;20197;-90
2023/06/07 03:12:46;;;;;;;4.90;1.00;;;21.30;99.90;;;;;;5058876;28;20200;-90
2023/06/07 03:15:19;;;;;;;3.20;0.85;;;21.30;99.90;;;;;;5074434;28;20222;-90
2023/06/07 03:17:50;;;;;;;2.63;0.70;;;21.30;99.90;;;;;;5077552;28;20685;-91
2023/06/07 03:20:24;;;;;;;4.38;1.10;;;21.40;99.90;;;;;;5076849;28;20211;-90
2023/06/07 03:22:56;;;;;;;6.93;0.90;;;21.30;99.90;;;;;;5075933;28;20266;-91
2023/06/07 03:25:27;;;;;;;2.72;0.70;;;21.30;99.90;;;;;;5069093;28;20203;-92
2023/06/07 03:28:03;;;;;;;3.08;0.90;;;21.20;99.90;;;;;;5058076;28;20204;-89
2023/06/07 03:30:35;;;;;;;3.47;0.90;;;21.20;99.90;;;;;;5058094;28;20302;-89
2023/06/07 03:33:09;;;;;;;3.35;1.17;;;21.10;99.90;;;;;;5059563;28;20245;-90
2023/06/07 03:35:41;;;;;;;1.88;0.80;;;21.10;99.90;;;;;;5064052;28;20203;-90
2023/06/07 03:38:12;;;;;;;3.28;0.80;;;21.10;99.90;;;;;;5076532;28;20200;-91
2023/06/07 03:40:45;;;;;;;2.97;0.90;;;21.10;99.90;;;;;;5092522;28;20192;-91
2023/06/07 03:43:25;;;;;;;5.43;1.00;;;21.20;99.90;;;;;;5092521;28;20605;-89
2023/06/07 03:45:58;;;;;;;2.05;0.93;;;21.10;99.90;;;;;;5083180;28;20554;-91
2023/06/07 03:48:29;;;;;;;2.75;0.90;;;21.10;99.90;;;;;;5075934;28;20192;-91
2023/06/07 03:51:01;;;;;;;2.35;0.90;;;21.10;99.90;;;;;;5071681;28;20565;-91
2023/06/07 03:53:32;;;;;;;3.25;0.90;;;21.00;99.90;;;;;;5072844;28;20199;-91
2023/06/07 03:56:05;;;;;;;1.83;0.95;;;21.00;99.90;;;;;;5075025;28;20234;-91
2023/06/07 03:58:40;;;;;;;1.83;0.88;;;21.00;99.90;;;;;;5074003;28;20207;-91
2023/06/07 04:01:13;;;;;;;4.53;1.17;;;21.00;99.90;;;;;;5075780;28;20203;-89
2023/06/07 04:03:45;;;;;;;4.80;1.00;;;21.00;99.90;;;;;;5075600;28;20751;-91
2023/06/07 04:06:20;;;;;;;2.17;0.90;;;21.00;99.90;;;;;;5062482;28;20629;-91
2023/06/07 04:08:52;;;;;;;2.08;0.80;;;21.10;99.90;;;;;;5056121;28;20645;-91
2023/06/07 04:11:26;;;;;;;3.22;0.80;;;20.90;99.90;;;;;;5071100;28;20210;-91
2023/06/07 04:14:02;;;;;;;3.97;1.10;;;20.90;99.90;;;;;;5082829;28;20200;-91
2023/06/07 04:16:37;;;;;;;1.85;0.80;;;20.90;99.90;;;;;;5082878;28;20195;-90
2023/06/07 04:19:10;;;;;;;2.47;0.82;;;20.90;99.90;;;;;;5072354;28;20221;-90
2023/06/07 04:21:44;;;;;;;3.70;0.80;;;20.80;99.90;;;;;;5074391;28;20202;-91
2023/06/07 04:24:18;;;;;;;2.03;0.85;;;20.80;99.90;;;;;;5057560;28;20193;-91
2023/06/07 04:26:53;;;;;;;2.17;0.60;;;20.70;99.90;;;;;;5074969;28;20235;-90
2023/06/07 04:29:27;;;;;;;1.55;0.80;;;20.70;99.90;;;;;;5059314;28;20206;-91
2023/06/07 04:32:01;;;;;;;2.13;0.90;;;20.70;99.90;;;;;;5053649;28;20292;-90
2023/06/07 04:34:34;;;;;;;3.47;0.80;;;20.70;99.90;;;;;;5053357;28;20200;-90
2023/06/07 04:37:05;;;;;;;2.03;0.90;;;20.70;99.90;;;;;;5054519;28;20200;-91
2023/06/07 04:39:39;;;;;;;2.17;0.80;;;20.60;99.90;;;;;;5054163;28;20216;-91
2023/06/07 04:42:14;;;;;;;2.53;0.80;;;20.50;99.90;;;;;;5054147;28;20224;-91
2023/06/07 04:44:47;;;;;;;2.03;0.90;;;20.50;99.90;;;;;;5055672;28;20666;-91
2023/06/07 04:47:18;;;;;;;3.42;0.73;;;20.50;99.90;;;;;;5073759;28;20198;-90
2023/06/07 04:49:51;;;;;;;2.17;0.60;;;20.50;99.90;;;;;;5073583;28;20678;-91
2023/06/07 04:52:24;;;;;;;1.08;0.50;;;20.40;99.90;;;;;;5073417;28;20192;-90
2023/06/07 04:54:58;;;;;;;1.92;0.50;;;20.30;99.90;;;;;;5057110;28;20197;-90
2023/06/07 04:57:32;;;;;;;4.88;0.68;;;20.30;99.90;;;;;;5054256;28;20218;-90
2023/06/07 05:00:10;;;;;;;1.90;0.65;;;20.30;99.90;;;;;;5054108;28;20206;-90
2023/06/07 05:02:43;;;;;;;1.90;0.52;;;20.30;99.90;;;;;;5065129;28;20223;-90
2023/06/07 05:05:15;;;;;;;3.15;0.80;;;20.40;99.90;;;;;;5073825;28;20245;-90
2023/06/07 05:07:49;;;;;;;1.38;0.73;;;20.40;99.90;;;;;;5073998;28;20219;-90
2023/06/07 05:10:21;;;;;;;4.43;0.60;;;20.30;99.90;;;;;;5073602;28;20674;-90
2023/06/07 05:12:53;;;;;;;1.13;0.50;;;20.20;99.90;;;;;;5073907;28;20200;-90
2023/06/07 05:15:28;;;;;;;2.50;0.60;;;20.30;99.90;;;;;;5074042;28;20226;-90
2023/06/07 05:17:59;;;;;;;2.78;0.75;;;20.30;99.90;;;;;;5073752;28;20204;-90
2023/06/07 05:20:33;;;;;;;0.73;0.45;;;20.40;99.90;;;;;;5073676;28;20204;-90
2023/06/07 05:23:04;;;;;;;1.00;0.50;;;20.30;99.90;;;;;;5072986;28;20219;-90
2023/06/07 05:25:35;;;;;;;1.52;0.63;;;20.20;99.90;;;;;;5072874;28;20205;-90
2023/06/07 05:28:08;;;;;;;2.00;0.70;;;20.20;99.90;;;;;;5067444;28;20205;-90
2023/06/07 05:30:42;;;;;;;1.25;0.52;;;20.20;99.90;;;;;;5052568;28;20250;-90
2023/06/07 05:33:14;;;;;;;1.55;0.70;;;20.20;99.90;;;;;;5052745;28;20224;-89
2023/06/07 05:35:46;;;;;;;0.82;0.50;;;20.20;99.90;;;;;;5056274;28;20202;-88
2023/06/07 05:38:17;;;;;;;1.70;0.70;;;20.30;99.90;;;;;;5072643;28;20227;-90
2023/06/07 05:40:48;;;;;;;1.40;0.68;;;20.20;99.90;;;;;;5053154;28;20250;-90
2023/06/07 05:43:20;;;;;;;2.35;0.73;;;20.20;99.90;;;;;;5052267;28;20235;-89
2023/06/07 05:45:53;;;;;;;1.77;0.60;;;20.10;99.90;;;;;;5066527;28;20192;-90
2023/06/07 05:48:25;;;;;;;1.65;0.60;;;20.10;99.90;;;;;;5075209;28;20191;-90
2023/06/07 05:50:57;;;;;;;2.13;0.70;;;20.00;99.90;;;;;;5076561;28;20206;-87
2023/06/07 05:53:28;;;;;;;2.85;0.70;;;20.00;99.90;;;;;;5078774;28;20192;-88
2023/06/07 05:55:59;;;;;;;1.60;0.60;;;20.00;99.90;;;;;;5077387;28;20192;-89
2023/06/07 05:58:31;;;;;;;2.55;0.90;;;20.00;99.90;;;;;;5084229;28;20206;-89
2023/06/07 06:01:07;;;;;;;2.50;0.80;;;20.00;99.90;;;;;;5070601;28;20206;-90
2023/06/07 06:03:39;;;;;;;1.85;0.68;;;20.00;99.90;;;;;;5053970;28;20237;-89
2023/06/07 06:06:22;;;;;;;1.88;0.70;;;20.00;99.90;;;;;;5054549;28;20193;-89
2023/06/07 06:08:54;;;;;;;3.63;0.95;;;20.10;99.90;;;;;;5057596;28;20216;-89
2023/06/07 06:11:27;;;;;;;2.50;0.70;;;20.00;99.90;;;;;;5072538;28;20211;-89
2023/06/07 06:13:59;;;;;;;0.95;0.60;;;20.00;99.90;;;;;;5078243;28;20222;-90
2023/06/07 06:16:35;;;;;;;2.92;1.00;;;20.00;99.90;;;;;;5091233;28;20176;-91
2023/06/07 06:19:08;;;;;;;2.58;0.95;;;20.10;99.90;;;;;;5091678;28;20613;-91
2023/06/07 06:21:40;;;;;;;3.17;1.02;;;20.10;99.90;;;;;;5063836;28;20210;-90
2023/06/07 06:24:11;;;;;;;3.22;0.70;;;20.10;99.90;;;;;;5055378;28;20228;-91
2023/06/07 06:26:43;;;;;;;2.70;0.90;;;20.10;99.90;;;;;;5056157;28;20215;-90
2023/06/07 06:29:15;;;;;;;3.42;0.82;;;20.00;99.90;;;;;;5073304;28;20215;-89
2023/06/07 06:31:50;;;;;;;2.22;0.95;;;19.80;99.90;;;;;;5073068;28;20239;-90
2023/06/07 06:34:21;;;;;;;2.30;0.70;;;19.80;99.90;;;;;;5073040;28;20240;-90
2023/06/07 06:36:52;;;;;;;1.63;0.70;;;19.70;99.90;;;;;;5072951;28;20200;-89
2023/06/07 06:39:23;;;;;;;2.42;0.73;;;19.70;99.90;;;;;;5058782;28;20212;-90
2023/06/07 06:41:54;;;;;;;4.35;0.93;;;19.50;99.90;;;;;;5055657;28;20228;-89
2023/06/07 06:44:25;;;;;;;2.03;0.90;;;19.40;99.90;;;;;;5062849;28;20558;-90
2023/06/07 06:47:00;;;;;;;3.35;0.90;;;19.30;99.90;;;;;;5056748;28;20200;-89
2023/06/07 06:49:32;;;;;;;3.10;0.80;;;19.30;99.90;;;;;;5073484;28;20206;-90
2023/06/07 06:52:03;;;;;;;2.63;0.90;;;19.20;99.90;;;;;;5076143;28;20196;-90
2023/06/07 06:54:34;;;;;;;1.52;0.80;;;19.20;99.90;;;;;;5075673;28;20697;-90
2023/06/07 06:57:08;;;;;;;2.30;0.90;;;19.20;99.90;;;;;;5077344;28;20597;-91
2023/06/07 06:59:40;;;;;;;2.88;0.82;;;19.10;99.90;;;;;;5075806;28;20643;-91
2023/06/07 07:02:16;;;;;;;2.00;0.70;;;19.10;99.90;;;;;;5074007;28;20663;-90
2023/06/07 07:04:48;;;;;;;2.13;1.00;;;19.00;99.90;;;;;;5055914;28;20235;-91
2023/06/07 07:07:21;;;;;;;2.08;0.80;;;19.00;99.90;;;;;;5055023;28;20798;-91
2023/06/07 07:09:54;;;;;;;2.05;0.75;;;19.00;99.90;;;;;;5057222;28;20189;-91
2023/06/07 07:12:26;;;;;;;3.67;0.98;;;18.90;99.90;;;;;;5072876;28;20192;-91
2023/06/07 07:14:59;;;;;;;2.50;0.93;;;19.00;99.90;;;;;;5085670;28;20210;-90
2023/06/07 07:17:35;;;;;;;3.00;0.70;;;18.90;99.90;;;;;;5081302;28;20563;-90
2023/06/07 07:20:08;;;;;;;1.60;0.60;;;18.90;99.90;;;;;;5075509;28;20192;-91
2023/06/07 07:22:41;;;;;;;5.15;2.38;;;18.90;99.90;;;;;;5083768;28;20242;-91
2023/06/07 07:25:14;;;;;;;2.83;1.35;;;18.90;99.90;;;;;;5076399;28;20196;-91
2023/06/07 07:27:47;;;;;;;4.10;2.20;;;18.80;99.90;;;;;;5066732;28;20229;-89
2023/06/07 07:30:18;;;;;;;3.28;1.92;;;18.70;99.90;;;;;;5058801;28;20196;-89
2023/06/07 07:32:55;;;;;;;8.60;3.40;;;18.70;99.90;;;;;;5082063;28;20230;-90
2023/06/07 07:35:26;;;;;;;3.85;2.60;;;18.70;99.90;;;;;;5071153;28;20261;-89
2023/06/07 07:38:01;;;;;;;3.13;1.67;;;18.70;99.90;;;;;;5055568;28;20200;-90
2023/06/07 07:40:34;;;;;;;4.55;2.63;;;18.70;99.90;;;;;;5055284;28;20196;-90
2023/06/07 07:43:05;;;;;;;5.45;2.85;;;18.70;99.90;;;;;;5055781;28;20562;-89
2023/06/07 07:45:36;;;;;;;3.80;2.00;;;18.60;99.90;;;;;;5054882;28;20215;-90
2023/06/07 07:48:12;;;;;;;4.10;2.03;;;18.70;99.90;;;;;;5061035;28;20200;-90
2023/06/07 07:50:43;;;;;;;4.15;1.10;;;18.70;99.90;;;;;;5055772;28;20200;-89
2023/06/07 07:53:15;;;;;;;4.15;1.20;;;18.60;99.90;;;;;;5071149;28;20572;-90
2023/06/07 07:55:46;;;;;;;3.90;1.13;;;18.60;99.90;;;;;;5075019;28;20232;-89
2023/06/07 07:58:19;;;;;;;7.20;4.70;;;18.60;99.90;;;;;;5074363;28;20200;-90
2023/06/07 08:00:50;;;;;;;5.20;3.50;;;18.60;99.90;;;;;;5074999;28;20208;-89
2023/06/07 08:03:23;;;;;;;4.65;3.75;;;18.50;99.90;;;;;;5074805;28;20258;-90
2023/06/07 08:05:54;;;;;;;6.20;2.13;;;18.50;99.90;;;;;;5074173;28;20200;-90
2023/06/07 08:08:26;;;;;;;3.05;1.60;;;18.50;99.90;;;;;;5075197;28;20302;-88
2023/06/07 08:10:58;;;;;;;3.75;1.25;;;18.50;99.90;;;;;;5075412;28;20215;-90
2023/06/07 08:13:30;;;;;;;2.55;1.13;;;18.50;99.90;;;;;;5075218;28;20650;-89
2023/06/07 08:16:03;;;;;;;4.28;1.13;;;18.50;99.90;;;;;;5073323;28;20579;-90
2023/06/07 08:18:39;;;;;;;2.67;1.20;;;18.50;99.90;;;;;;5075027;28;20199;-89
2023/06/07 08:21:11;;;;;;;3.70;1.35;;;18.50;99.90;;;;;;5078454;28;20207;-90
2023/06/07 08:23:44;;;;;;;3.20;1.52;;;18.50;99.90;;;;;;5086837;28;20208;-87
2023/06/07 08:26:17;;;;;;;2.72;1.23;;;18.40;99.90;;;;;;5078178;28;20349;-89
2023/06/07 08:28:48;;;;;;;3.17;1.05;;;18.40;99.90;;;;;;5075131;28;20529;-90
2023/06/07 08:31:22;;;;;;;2.80;1.20;;;18.40;99.90;;;;;;5074792;28;20224;-89
2023/06/07 08:33:56;;;;;;;2.72;1.30;;;18.40;99.90;;;;;;5075091;28;20234;-90
2023/06/07 08:36:28;;;;;;;2.90;1.40;;;18.40;99.90;;;;;;5075324;28;20559;-89
2023/06/07 08:39:01;;;;;;;3.65;1.83;;;18.40;99.90;;;;;;5074372;28;20198;-90
2023/06/07 08:41:33;;;;;;;3.85;1.80;;;18.40;99.90;;;;;;5073280;28;20192;-89
2023/06/07 08:44:04;;;;;;;3.45;1.55;;;18.40;99.90;;;;;;5073937;28;20235;-90
2023/06/07 08:46:36;;;;;;;3.15;0.90;;;18.30;99.90;;;;;;5074800;28;20208;-90
2023/06/07 08:49:12;;;;;;;1.85;1.10;;;18.30;99.90;;;;;;5079631;28;20210;-90
2023/06/07 08:51:47;;;;;;;1.80;1.30;;;18.30;99.90;;;;;;5077127;28;20200;-90
2023/06/07 08:54:24;;;;;;;4.10;2.30;;;18.20;99.90;;;;;;5074642;28;20226;-89
2023/06/07 08:56:56;;;;;;;3.95;2.30;;;18.20;99.90;;;;;;5082911;28;20203;-89
2023/06/07 08:59:27;;;;;;;4.50;2.00;;;18.20;99.90;;;;;;5092989;28;20243;-90
2023/06/07 09:01:59;;;;;;;4.93;1.90;;;18.20;99.90;;;;;;5082057;28;20203;-90
2023/06/07 09:04:34;;;;;;;2.65;2.00;;;18.20;99.90;;;;;;5075863;28;20223;-90
2023/06/07 09:07:07;;;;;;;3.97;2.10;;;18.20;99.90;;;;;;5076149;28;20187;-89
2023/06/07 09:09:43;;;;;;;3.55;2.00;;;18.10;99.90;;;;;;5073731;28;20192;-89
2023/06/07 09:12:16;;;;;;;2.85;1.20;;;18.10;99.90;;;;;;5075172;28;20199;-90
2023/06/07 09:14:50;;;;;;;4.28;1.05;;;18.20;99.90;;;;;;5076736;28;20196;-89
2023/06/07 09:17:22;;;;;;;2.00;1.15;;;18.10;99.90;;;;;;5075547;28;20222;-90
2023/06/07 09:19:56;;;;;;;3.25;1.40;;;18.10;99.90;;;;;;5075208;28;20192;-90
2023/06/07 09:22:30;;;;;;;2.65;1.10;;;18.10;99.90;;;;;;5075575;28;20222;-90
2023/06/07 09:25:11;;;;;;;2.53;1.30;;;18.10;99.90;;;;;;5075183;28;20219;-90
2023/06/07 09:27:52;;;;;;;3.38;1.30;;;18.20;99.90;;;;;;5074096;28;20208;-90
2023/06/07 09:30:25;;;;;;;2.88;1.55;;;18.20;99.90;;;;;;5071909;28;20204;-88
2023/06/07 09:32:57;;;;;;;2.55;1.10;;;18.20;99.90;;;;;;5054360;28;20228;-90
2023/06/07 09:35:32;;;;;;;4.28;1.38;;;18.20;99.90;;;;;;5072162;28;20215;-90
2023/06/07 09:38:05;;;;;;;3.20;1.35;;;18.10;99.90;;;;;;5073698;28;20191;-89
2023/06/07 09:40:38;;;;;;;4.82;1.33;;;18.10;99.90;;;;;;5073877;28;20196;-89
2023/06/07 09:43:11;;;;;;;3.33;1.50;;;18.10;99.90;;;;;;5075270;28;20204;-89
2023/06/07 09:45:53;;;;;;;3.25;1.38;;;18.10;99.90;;;;;;5072856;28;20207;-90
2023/06/07 09:48:26;;;;;;;3.60;1.60;;;18.10;99.90;;;;;;5073811;28;20287;-89
2023/06/07 09:51:03;;;;;;;4.75;1.40;;;18.10;99.90;;;;;;5073821;28;20207;-90
2023/06/07 09:53:53;;;;;;;5.13;1.73;;;18.10;99.90;;;;;;5073171;28;20207;-90
2023/06/07 09:56:27;;;;;;;5.32;2.67;;;18.10;99.90;;;;;;5073469;28;20800;-91
2023/06/07 09:59:10;;;;;;;4.22;2.28;;;18.10;99.90;;;;;;5073557;28;20208;-90
2023/06/07 10:01:45;;;;;;;2.92;1.95;;;18.10;99.90;;;;;;5068231;28;20222;-90
2023/06/07 10:04:18;;;;;;;4.38;1.70;;;18.00;99.90;;;;;;5053571;28;20209;-90
2023/06/07 10:07:00;;;;;;;3.97;1.77;;;18.00;99.90;;;;;;5052392;28;20193;-91
2023/06/07 10:09:34;;;;;;;6.20;2.53;;;18.00;99.90;;;;;;5075060;28;20235;-89
2023/06/07 10:12:07;;;;;;;6.70;3.17;;;18.00;99.90;;;;;;5073418;28;20207;-90
2023/06/07 10:14:38;;;;;;;6.38;2.40;;;18.00;99.90;;;;;;5071782;28;20204;-89
2023/06/07 10:17:13;;;;;;;6.47;2.80;;;18.00;99.90;;;;;;5073444;28;20198;-90
2023/06/07 10:19:49;;;;;;;5.68;3.00;;;18.00;99.90;;;;;;5073981;28;20202;-90
2023/06/07 10:22:27;;;;;;;6.07;2.72;;;18.00;99.90;;;;;;5073580;28;20724;-90
2023/06/07 10:25:05;;;;;;;5.95;2.75;;;18.00;99.90;;;;;;5073713;28;20226;-90
2023/06/07 10:27:44;;;;;;;4.35;2.22;;;18.00;99.90;;;;;;5081616;28;20194;-88
2023/06/07 10:30:18;;;;;;;6.45;2.08;;;18.00;99.90;;;;;;5084387;28;20201;-89
2023/06/07 10:32:52;;;;;;;4.55;1.65;;;17.90;99.90;;;;;;4911790;28;4634742;-90
2023/06/07 10:35:24;;;;;;;4.80;2.00;;;17.90;99.90;;;;;;5053756;28;20196;-89
2023/06/07 10:38:02;;;;;;;3.47;1.70;;;17.90;99.90;;;;;;5054850;28;20730;-89
2023/06/07 10:40:35;;;;;;;2.17;1.40;;;17.90;99.90;;;;;;5056376;28;20228;-89
2023/06/07 10:43:07;;;;;;;5.07;1.83;;;17.90;99.90;;;;;;5070256;28;20208;-88
2023/06/07 10:45:38;;;;;;;6.05;1.90;;;17.80;99.90;;;;;;5073403;28;20714;-90
2023/06/07 10:48:38;;;;;;;5.00;2.00;;;17.90;99.90;;;;;;5073421;28;20296;-89
2023/06/07 10:51:09;;;;;;;7.75;2.33;;;17.80;99.90;;;;;;5072063;28;20219;-90
2023/06/07 10:53:55;;;;;;;6.80;2.28;;;17.80;99.90;;;;;;5071991;28;20243;-90
2023/06/07 10:56:43;;;;;;;5.28;1.77;;;17.90;99.90;;;;;;5071890;28;20207;-90
2023/06/07 10:59:28;;;;;;;4.40;1.83;;;17.80;99.90;;;;;;5071362;28;20195;-89
2023/06/07 11:02:24;;;;;;;6.35;2.10;;;17.80;99.90;;;;;;5071622;28;20204;-89
2023/06/07 11:05:03;;;;;;;2.97;1.80;;;17.80;99.90;;;;;;5071556;28;20305;-89
2023/06/07 11:07:41;;;;;;;6.97;1.90;;;17.80;99.90;;;;;;5071638;28;20224;-90
2023/06/07 11:10:38;;;;;;;4.45;1.90;;;17.80;99.90;;;;;;5071840;28;20192;-89
2023/06/07 11:13:11;;;;;;;3.35;1.42;;;17.80;99.90;;;;;;5072608;28;20211;-90
2023/06/07 11:15:43;;;;;;;4.13;1.67;;;17.80;99.90;;;;;;5072518;28;20825;-87
2023/06/07 11:18:16;;;;;;;4.10;1.55;;;17.80;99.90;;;;;;5077415;28;20279;-87
2023/06/07 11:20:56;;;;;;;5.70;1.40;;;17.80;99.90;;;;;;5075538;28;20192;-87
2023/06/07 11:23:34;;;;;;;4.63;1.65;;;17.80;99.90;;;;;;5074630;28;20261;-86
2023/06/07 11:26:15;;;;;;;5.93;1.60;;;17.70;99.90;;;;;;5053630;28;20227;-90
2023/06/07 11:28:47;;;;;;;1.92;1.30;;;17.70;99.90;;;;;;5057022;28;20203;-89
2023/06/07 11:31:18;;;;;;;3.88;1.60;;;17.70;99.90;;;;;;5070446;28;20228;-89
2023/06/07 11:33:53;;;;;;;3.30;1.38;;;17.70;99.90;;;;;;5078061;28;20199;-90
2023/06/07 11:36:27;;;;;;;5.65;1.30;;;17.70;99.90;;;;;;5077402;28;20559;-88
2023/06/07 11:39:01;;;;;;;1.98;1.05;;;17.70;99.90;;;;;;5059305;28;20198;-89
2023/06/07 11:41:36;;;;;;;4.00;1.50;;;17.70;99.90;;;;;;5076926;28;20200;-89
2023/06/07 11:44:09;;;;;;;2.70;1.27;;;17.60;99.90;;;;;;5075526;28;20230;-89
2023/06/07 11:46:42;;;;;;;4.07;1.30;;;17.60;99.90;;;;;;5087311;28;20200;-89
2023/06/07 11:49:14;;;;;;;3.70;1.60;;;17.60;99.90;;;;;;5081883;28;20224;-90
2023/06/07 11:52:01;;;;;;;4.53;1.30;;;17.60;99.90;;;;;;5078328;28;20308;-89
2023/06/07 11:54:39;;;;;;;5.18;1.60;;;17.60;99.90;;;;;;5078958;28;20204;-88
2023/06/07 11:57:21;;;;;;;3.15;1.02;;;17.60;99.90;;;;;;5080569;28;20188;-90
2023/06/07 11:59:55;;;;;;;3.38;1.20;;;17.60;99.90;;;;;;5079558;28;20291;-91
2023/06/07 12:02:29;;;;;;;4.05;1.05;;;17.60;99.90;;;;;;5079816;28;20199;-90
2023/06/07 12:05:09;;;;;;;3.97;1.30;;;17.60;99.90;;;;;;5076042;28;20266;-90
2023/06/07 12:07:42;;;;;;;2.25;0.90;;;17.60;99.90;;;;;;5071995;28;20709;-90
2023/06/07 12:10:25;;;;;;;3.85;1.23;;;17.60;99.90;;;;;;5081754;28;20255;-91
2023/06/07 12:13:26;;;;;;;4.13;1.10;;;17.60;99.90;;;;;;5079445;28;20199;-91
2023/06/07 12:15:59;;;;;;;2.47;0.95;;;17.60;99.90;;;;;;5081236;28;20203;-89
2023/06/07 12:18:38;;;;;;;1.98;0.95;;;17.60;99.90;;;;;;5090375;28;20200;-87
2023/06/07 12:21:18;;;;;;;1.80;0.90;;;17.60;99.90;;;;;;5089685;28;20203;-89
2023/06/07 12:23:56;;;;;;;2.03;1.10;;;17.60;99.90;;;;;;5092256;28;20199;-90
2023/06/07 12:26:38;;;;;;;3.28;1.30;;;17.60;99.90;;;;;;5090090;28;20239;-89
2023/06/07 12:29:34;;;;;;;2.38;0.98;;;17.50;99.90;;;;;;5090933;28;20195;-88
2023/06/07 12:32:05;;;;;;;2.38;0.90;;;17.60;99.90;;;;;;5085447;28;20247;-87
2023/06/07 12:34:38;;;;;;;2.92;1.10;;;17.50;99.90;;;;;;5086249;28;20200;-88
2023/06/07 12:37:12;;;;;;;4.22;1.10;;;17.60;99.90;;;;;;5085898;28;20202;-88
2023/06/07 12:42:51;;;;;;;2.85;1.10;;;17.50;99.90;;;;;;5061865;28;20271;-86
2023/06/07 12:45:26;;;;;;;5.22;1.25;;;17.50;99.90;;;;;;5087161;28;20226;-90
2023/06/07 12:48:12;;;;;;;4.32;1.60;;;17.50;99.90;;;;;;5088404;28;20599;-88
2023/06/07 12:50:47;;;;;;;2.58;1.45;;;17.50;99.90;;;;;;5086926;28;20280;-89
2023/06/07 12:53:20;;;;;;;5.15;1.98;;;17.60;99.90;;;;;;5086411;28;20693;-90
2023/06/07 12:55:58;;;;;;;3.10;1.55;;;17.60;99.90;;;;;;5085666;28;20188;-87
2023/06/07 12:58:31;;;;;;;2.53;1.20;;;17.60;99.90;;;;;;5084916;28;20265;-89
2023/06/07 13:01:09;;;;;;;3.35;1.10;;;17.50;99.90;;;;;;5082703;28;20219;-92
2023/06/07 13:03:43;;;;;;;2.75;1.10;;;17.50;99.90;;;;;;5088532;28;20202;-88
2023/06/07 13:06:17;;;;;;;3.33;1.30;;;17.50;99.90;;;;;;5089256;28;20254;-90
2023/06/07 13:09:09;;;;;;;1.98;0.90;;;17.50;99.90;;;;;;5089693;28;20381;-89
2023/06/07 13:14:29;;;;;;;5.05;1.52;;;17.60;99.90;;;;;;5090773;28;20667;-89
2023/06/07 13:17:31;;;;;;;4.55;1.58;;;17.50;99.90;;;;;;5091296;28;20195;-89
2023/06/07 13:20:05;;;;;;;5.43;1.42;;;17.50;99.90;;;;;;5087473;28;20260;-90
2023/06/07 13:22:38;;;;;;;3.90;1.15;;;17.50;99.90;;;;;;5088278;28;20658;-88
2023/06/07 13:25:10;;;;;;;3.83;1.17;;;17.40;99.90;;;;;;5089285;28;20698;-89
2023/06/07 13:27:44;;;;;;;2.35;1.00;;;17.50;99.90;;;;;;5084644;28;20226;-90
2023/06/07 13:30:20;;;;;;;3.65;0.95;;;17.50;99.90;;;;;;5082390;28;20636;-89